sensor_id;sensor_type;location;lat;lon;timestamp;P1;durP1;ratioP1;P2;durP2;ratioP2
32186;SDS011;18686;53.084;8.872;2023-02-01T00:01:23;30.30;;;5.18;;
32186;SDS011;18686;53.084;8.872;2023-02-01T00:03:51;19.23;;;4.30;;
32186;SDS011;18686;53.084;8.872;2023-02-01T00:06:19;29.35;;;4.53;;
32186;SDS011;18686;53.084;8.872;2023-02-01T00:08:48;27.67;;;4.70;;
32186;SDS011;18686;53.084;8.872;2023-02-01T00:11:16;30.90;;;5.30;;
32186;SDS011;18686;53.084;8.872;2023-02-01T00:13:44;34.78;;;5.13;;
32186;SDS011;18686;53.084;8.872;2023-02-01T00:16:15;27.80;;;5.15;;
32186;SDS011;18686;53.084;8.872;2023-02-01T00:18:46;29.55;;;5.20;;
32186;SDS011;18686;53.084;8.872;2023-02-01T00:21:17;33.67;;;4.78;;
32186;SDS011;18686;53.084;8.872;2023-02-01T00:23:46;29.27;;;4.68;;
32186;SDS011;18686;53.084;8.872;2023-02-01T00:26:16;31.10;;;4.93;;
32186;SDS011;18686;53.084;8.872;2023-02-01T00:28:46;37.13;;;4.25;;
32186;SDS011;18686;53.084;8.872;2023-02-01T00:31:15;28.42;;;4.47;;
32186;SDS011;18686;53.084;8.872;2023-02-01T00:33:46;28.63;;;4.50;;
32186;SDS011;18686;53.084;8.872;2023-02-01T00:36:14;26.42;;;4.35;;
32186;SDS011;18686;53.084;8.872;2023-02-01T00:38:43;30.90;;;4.90;;
32186;SDS011;18686;53.084;8.872;2023-02-01T00:41:12;38.13;;;5.43;;
32186;SDS011;18686;53.084;8.872;2023-02-01T00:43:42;25.50;;;4.60;;
32186;SDS011;18686;53.084;8.872;2023-02-01T00:46:11;29.85;;;4.65;;
32186;SDS011;18686;53.084;8.872;2023-02-01T00:48:41;31.20;;;4.45;;
32186;SDS011;18686;53.084;8.872;2023-02-01T00:51:11;22.38;;;4.28;;
32186;SDS011;18686;53.084;8.872;2023-02-01T00:53:40;26.17;;;4.60;;
32186;SDS011;18686;53.084;8.872;2023-02-01T00:56:09;38.30;;;5.30;;
32186;SDS011;18686;53.084;8.872;2023-02-01T00:58:39;29.65;;;4.40;;
32186;SDS011;18686;53.084;8.872;2023-02-01T01:01:11;27.35;;;4.82;;
32186;SDS011;18686;53.084;8.872;2023-02-01T01:03:43;30.40;;;5.05;;
32186;SDS011;18686;53.084;8.872;2023-02-01T01:06:12;31.75;;;5.68;;
32186;SDS011;18686;53.084;8.872;2023-02-01T01:08:42;30.67;;;4.93;;
32186;SDS011;18686;53.084;8.872;2023-02-01T01:11:11;33.40;;;5.22;;
32186;SDS011;18686;53.084;8.872;2023-02-01T01:13:41;23.52;;;4.80;;
32186;SDS011;18686;53.084;8.872;2023-02-01T01:16:10;27.50;;;5.15;;
32186;SDS011;18686;53.084;8.872;2023-02-01T01:18:38;31.75;;;5.75;;
32186;SDS011;18686;53.084;8.872;2023-02-01T01:21:09;26.52;;;4.50;;
32186;SDS011;18686;53.084;8.872;2023-02-01T01:23:39;33.45;;;4.50;;
32186;SDS011;18686;53.084;8.872;2023-02-01T01:26:08;27.08;;;4.50;;
32186;SDS011;18686;53.084;8.872;2023-02-01T01:28:39;31.38;;;4.90;;
32186;SDS011;18686;53.084;8.872;2023-02-01T01:31:08;29.58;;;4.90;;
32186;SDS011;18686;53.084;8.872;2023-02-01T01:33:37;30.65;;;5.15;;
32186;SDS011;18686;53.084;8.872;2023-02-01T01:36:07;32.75;;;5.13;;
32186;SDS011;18686;53.084;8.872;2023-02-01T01:38:38;29.13;;;4.70;;
32186;SDS011;18686;53.084;8.872;2023-02-01T01:41:07;30.08;;;4.68;;
32186;SDS011;18686;53.084;8.872;2023-02-01T01:43:50;23.52;;;4.65;;
32186;SDS011;18686;53.084;8.872;2023-02-01T01:46:24;35.28;;;6.10;;
32186;SDS011;18686;53.084;8.872;2023-02-01T01:48:55;26.77;;;4.35;;
32186;SDS011;18686;53.084;8.872;2023-02-01T01:51:32;28.05;;;4.78;;
32186;SDS011;18686;53.084;8.872;2023-02-01T01:54:06;32.78;;;5.15;;
32186;SDS011;18686;53.084;8.872;2023-02-01T01:56:42;38.40;;;5.03;;
32186;SDS011;18686;53.084;8.872;2023-02-01T01:59:13;26.48;;;4.75;;
32186;SDS011;18686;53.084;8.872;2023-02-01T02:01:42;27.95;;;4.47;;
32186;SDS011;18686;53.084;8.872;2023-02-01T02:04:10;29.52;;;4.95;;
32186;SDS011;18686;53.084;8.872;2023-02-01T02:06:42;21.95;;;4.65;;
32186;SDS011;18686;53.084;8.872;2023-02-01T02:09:15;26.98;;;5.13;;
32186;SDS011;18686;53.084;8.872;2023-02-01T02:11:43;32.80;;;5.50;;
32186;SDS011;18686;53.084;8.872;2023-02-01T02:14:12;26.83;;;4.72;;
32186;SDS011;18686;53.084;8.872;2023-02-01T02:20:00;31.90;;;7.85;;
32186;SDS011;18686;53.084;8.872;2023-02-01T02:23:05;31.60;;;6.25;;
32186;SDS011;18686;53.084;8.872;2023-02-01T02:25:58;27.50;;;4.85;;
32186;SDS011;18686;53.084;8.872;2023-02-01T02:28:55;24.10;;;4.35;;
32186;SDS011;18686;53.084;8.872;2023-02-01T02:31:54;31.08;;;4.80;;
32186;SDS011;18686;53.084;8.872;2023-02-01T02:34:34;28.98;;;4.90;;
32186;SDS011;18686;53.084;8.872;2023-02-01T02:37:10;35.28;;;6.28;;
32186;SDS011;18686;53.084;8.872;2023-02-01T02:39:48;29.58;;;5.07;;
32186;SDS011;18686;53.084;8.872;2023-02-01T02:42:22;24.50;;;5.03;;
32186;SDS011;18686;53.084;8.872;2023-02-01T02:45:16;26.85;;;4.38;;
32186;SDS011;18686;53.084;8.872;2023-02-01T02:48:09;28.27;;;4.70;;
32186;SDS011;18686;53.084;8.872;2023-02-01T02:50:44;27.40;;;3.90;;
32186;SDS011;18686;53.084;8.872;2023-02-01T02:53:35;25.25;;;4.22;;
32186;SDS011;18686;53.084;8.872;2023-02-01T02:56:29;24.00;;;4.28;;
32186;SDS011;18686;53.084;8.872;2023-02-01T02:59:15;27.52;;;4.10;;
32186;SDS011;18686;53.084;8.872;2023-02-01T03:02:04;22.13;;;3.80;;
32186;SDS011;18686;53.084;8.872;2023-02-01T03:04:52;23.75;;;3.70;;
32186;SDS011;18686;53.084;8.872;2023-02-01T03:10:23;25.70;;;4.35;;
32186;SDS011;18686;53.084;8.872;2023-02-01T03:13:00;24.38;;;5.07;;
32186;SDS011;18686;53.084;8.872;2023-02-01T03:15:32;27.45;;;4.32;;
32186;SDS011;18686;53.084;8.872;2023-02-01T03:18:04;28.23;;;4.88;;
32186;SDS011;18686;53.084;8.872;2023-02-01T03:20:39;28.20;;;4.85;;
32186;SDS011;18686;53.084;8.872;2023-02-01T03:23:11;27.08;;;4.72;;
32186;SDS011;18686;53.084;8.872;2023-02-01T03:25:43;27.23;;;5.15;;
32186;SDS011;18686;53.084;8.872;2023-02-01T03:28:14;27.05;;;4.32;;
32186;SDS011;18686;53.084;8.872;2023-02-01T03:30:47;26.65;;;4.72;;
32186;SDS011;18686;53.084;8.872;2023-02-01T03:33:17;26.00;;;4.50;;
32186;SDS011;18686;53.084;8.872;2023-02-01T03:35:51;30.00;;;5.07;;
32186;SDS011;18686;53.084;8.872;2023-02-01T03:38:27;31.58;;;4.57;;
32186;SDS011;18686;53.084;8.872;2023-02-01T03:41:03;35.72;;;4.55;;
32186;SDS011;18686;53.084;8.872;2023-02-01T03:43:41;25.98;;;4.20;;
32186;SDS011;18686;53.084;8.872;2023-02-01T03:46:17;23.48;;;4.30;;
32186;SDS011;18686;53.084;8.872;2023-02-01T03:48:50;24.30;;;3.92;;
32186;SDS011;18686;53.084;8.872;2023-02-01T03:51:20;24.35;;;4.80;;
32186;SDS011;18686;53.084;8.872;2023-02-01T03:53:52;24.70;;;4.18;;
32186;SDS011;18686;53.084;8.872;2023-02-01T03:56:21;28.52;;;4.68;;
32186;SDS011;18686;53.084;8.872;2023-02-01T03:58:53;28.38;;;4.60;;
32186;SDS011;18686;53.084;8.872;2023-02-01T04:01:32;31.88;;;4.32;;
32186;SDS011;18686;53.084;8.872;2023-02-01T04:04:00;22.55;;;4.35;;
32186;SDS011;18686;53.084;8.872;2023-02-01T04:06:29;32.08;;;5.43;;
32186;SDS011;18686;53.084;8.872;2023-02-01T04:09:02;20.15;;;3.50;;
32186;SDS011;18686;53.084;8.872;2023-02-01T04:11:30;22.67;;;3.90;;
32186;SDS011;18686;53.084;8.872;2023-02-01T04:13:59;19.13;;;3.30;;
32186;SDS011;18686;53.084;8.872;2023-02-01T04:16:31;25.73;;;3.90;;
32186;SDS011;18686;53.084;8.872;2023-02-01T04:18:59;15.25;;;2.60;;
32186;SDS011;18686;53.084;8.872;2023-02-01T04:21:28;21.65;;;3.80;;
32186;SDS011;18686;53.084;8.872;2023-02-01T04:23:58;16.95;;;3.10;;
32186;SDS011;18686;53.084;8.872;2023-02-01T04:26:27;24.30;;;4.20;;
32186;SDS011;18686;53.084;8.872;2023-02-01T04:28:56;21.40;;;3.38;;
32186;SDS011;18686;53.084;8.872;2023-02-01T04:31:24;19.27;;;3.60;;
32186;SDS011;18686;53.084;8.872;2023-02-01T04:33:54;25.63;;;4.38;;
32186;SDS011;18686;53.084;8.872;2023-02-01T04:36:24;28.35;;;4.43;;
32186;SDS011;18686;53.084;8.872;2023-02-01T04:38:52;21.98;;;3.42;;
32186;SDS011;18686;53.084;8.872;2023-02-01T04:41:20;28.75;;;5.10;;
32186;SDS011;18686;53.084;8.872;2023-02-01T04:43:50;22.95;;;5.18;;
32186;SDS011;18686;53.084;8.872;2023-02-01T04:46:19;33.38;;;4.50;;
32186;SDS011;18686;53.084;8.872;2023-02-01T04:48:47;29.77;;;6.03;;
32186;SDS011;18686;53.084;8.872;2023-02-01T04:51:16;29.88;;;4.88;;
32186;SDS011;18686;53.084;8.872;2023-02-01T04:53:44;29.40;;;4.90;;
32186;SDS011;18686;53.084;8.872;2023-02-01T04:56:13;31.45;;;5.05;;
32186;SDS011;18686;53.084;8.872;2023-02-01T04:58:41;34.88;;;4.63;;
32186;SDS011;18686;53.084;8.872;2023-02-01T05:01:10;31.13;;;5.03;;
32186;SDS011;18686;53.084;8.872;2023-02-01T05:03:39;35.95;;;4.60;;
32186;SDS011;18686;53.084;8.872;2023-02-01T05:06:07;33.60;;;5.88;;
32186;SDS011;18686;53.084;8.872;2023-02-01T05:08:35;27.73;;;5.00;;
32186;SDS011;18686;53.084;8.872;2023-02-01T05:11:04;28.58;;;4.90;;
32186;SDS011;18686;53.084;8.872;2023-02-01T05:13:32;36.20;;;5.35;;
32186;SDS011;18686;53.084;8.872;2023-02-01T05:16:16;30.00;;;4.63;;
32186;SDS011;18686;53.084;8.872;2023-02-01T05:18:44;30.08;;;4.30;;
32186;SDS011;18686;53.084;8.872;2023-02-01T05:21:12;26.80;;;4.20;;
32186;SDS011;18686;53.084;8.872;2023-02-01T05:23:41;20.85;;;4.63;;
32186;SDS011;18686;53.084;8.872;2023-02-01T05:26:23;27.20;;;5.22;;
32186;SDS011;18686;53.084;8.872;2023-02-01T05:28:52;33.30;;;4.57;;
32186;SDS011;18686;53.084;8.872;2023-02-01T05:31:22;26.73;;;4.38;;
32186;SDS011;18686;53.084;8.872;2023-02-01T05:33:51;22.40;;;3.92;;
32186;SDS011;18686;53.084;8.872;2023-02-01T05:36:20;21.50;;;4.25;;
32186;SDS011;18686;53.084;8.872;2023-02-01T05:38:48;23.40;;;4.10;;
32186;SDS011;18686;53.084;8.872;2023-02-01T05:41:16;18.92;;;4.20;;
32186;SDS011;18686;53.084;8.872;2023-02-01T05:43:44;18.92;;;3.50;;
32186;SDS011;18686;53.084;8.872;2023-02-01T05:46:13;18.40;;;3.42;;
32186;SDS011;18686;53.084;8.872;2023-02-01T05:48:42;19.25;;;4.10;;
32186;SDS011;18686;53.084;8.872;2023-02-01T05:51:11;27.55;;;5.55;;
32186;SDS011;18686;53.084;8.872;2023-02-01T05:53:40;23.15;;;3.72;;
32186;SDS011;18686;53.084;8.872;2023-02-01T05:56:08;21.92;;;3.08;;
32186;SDS011;18686;53.084;8.872;2023-02-01T05:58:36;19.27;;;3.92;;
32186;SDS011;18686;53.084;8.872;2023-02-01T06:01:04;19.75;;;4.00;;
32186;SDS011;18686;53.084;8.872;2023-02-01T06:03:33;25.30;;;4.30;;
32186;SDS011;18686;53.084;8.872;2023-02-01T06:06:03;14.27;;;3.13;;
32186;SDS011;18686;53.084;8.872;2023-02-01T06:08:32;19.15;;;3.78;;
32186;SDS011;18686;53.084;8.872;2023-02-01T06:11:01;18.30;;;3.40;;
32186;SDS011;18686;53.084;8.872;2023-02-01T06:13:31;21.33;;;3.42;;
32186;SDS011;18686;53.084;8.872;2023-02-01T06:16:00;18.40;;;4.07;;
32186;SDS011;18686;53.084;8.872;2023-02-01T06:18:29;18.00;;;3.08;;
32186;SDS011;18686;53.084;8.872;2023-02-01T06:20:58;18.55;;;4.13;;
32186;SDS011;18686;53.084;8.872;2023-02-01T06:23:28;20.60;;;3.95;;
32186;SDS011;18686;53.084;8.872;2023-02-01T06:25:58;19.73;;;4.38;;
32186;SDS011;18686;53.084;8.872;2023-02-01T06:28:27;20.13;;;4.65;;
32186;SDS011;18686;53.084;8.872;2023-02-01T06:30:56;17.70;;;3.15;;
32186;SDS011;18686;53.084;8.872;2023-02-01T06:33:25;20.08;;;3.60;;
32186;SDS011;18686;53.084;8.872;2023-02-01T06:35:56;15.23;;;2.90;;
32186;SDS011;18686;53.084;8.872;2023-02-01T06:38:25;15.80;;;2.70;;
32186;SDS011;18686;53.084;8.872;2023-02-01T06:40:56;17.85;;;3.15;;
32186;SDS011;18686;53.084;8.872;2023-02-01T06:43:25;15.60;;;3.15;;
32186;SDS011;18686;53.084;8.872;2023-02-01T06:45:58;19.55;;;3.42;;
32186;SDS011;18686;53.084;8.872;2023-02-01T06:48:27;18.77;;;3.30;;
32186;SDS011;18686;53.084;8.872;2023-02-01T06:50:56;18.75;;;3.60;;
32186;SDS011;18686;53.084;8.872;2023-02-01T06:53:25;24.77;;;3.42;;
32186;SDS011;18686;53.084;8.872;2023-02-01T06:55:53;22.08;;;3.83;;
32186;SDS011;18686;53.084;8.872;2023-02-01T06:58:27;21.33;;;3.50;;
32186;SDS011;18686;53.084;8.872;2023-02-01T07:00:56;26.65;;;4.25;;
32186;SDS011;18686;53.084;8.872;2023-02-01T07:03:25;18.98;;;3.63;;
32186;SDS011;18686;53.084;8.872;2023-02-01T07:05:55;24.85;;;3.70;;
32186;SDS011;18686;53.084;8.872;2023-02-01T07:08:25;18.13;;;3.63;;
32186;SDS011;18686;53.084;8.872;2023-02-01T07:10:56;18.27;;;3.80;;
32186;SDS011;18686;53.084;8.872;2023-02-01T07:13:24;18.58;;;3.88;;
32186;SDS011;18686;53.084;8.872;2023-02-01T07:15:52;24.05;;;4.07;;
32186;SDS011;18686;53.084;8.872;2023-02-01T07:18:20;18.70;;;2.65;;
32186;SDS011;18686;53.084;8.872;2023-02-01T07:20:49;18.92;;;2.83;;
32186;SDS011;18686;53.084;8.872;2023-02-01T07:23:17;15.18;;;2.92;;
32186;SDS011;18686;53.084;8.872;2023-02-01T07:25:46;12.43;;;2.20;;
32186;SDS011;18686;53.084;8.872;2023-02-01T07:28:16;15.90;;;2.67;;
32186;SDS011;18686;53.084;8.872;2023-02-01T07:30:44;12.30;;;2.85;;
32186;SDS011;18686;53.084;8.872;2023-02-01T07:33:20;20.52;;;3.05;;
32186;SDS011;18686;53.084;8.872;2023-02-01T07:35:53;18.98;;;3.80;;
32186;SDS011;18686;53.084;8.872;2023-02-01T07:38:21;22.98;;;3.92;;
32186;SDS011;18686;53.084;8.872;2023-02-01T07:40:50;23.73;;;4.65;;
32186;SDS011;18686;53.084;8.872;2023-02-01T07:43:19;26.48;;;4.75;;
32186;SDS011;18686;53.084;8.872;2023-02-01T07:45:50;28.08;;;3.97;;
32186;SDS011;18686;53.084;8.872;2023-02-01T07:48:19;27.13;;;4.95;;
32186;SDS011;18686;53.084;8.872;2023-02-01T07:50:56;29.25;;;4.90;;
32186;SDS011;18686;53.084;8.872;2023-02-01T07:53:25;33.17;;;5.38;;
32186;SDS011;18686;53.084;8.872;2023-02-01T07:55:53;29.92;;;4.22;;
32186;SDS011;18686;53.084;8.872;2023-02-01T07:58:24;23.27;;;3.42;;
32186;SDS011;18686;53.084;8.872;2023-02-01T08:00:53;27.00;;;4.75;;
32186;SDS011;18686;53.084;8.872;2023-02-01T08:03:40;26.92;;;3.83;;
32186;SDS011;18686;53.084;8.872;2023-02-01T08:06:08;28.73;;;3.92;;
32186;SDS011;18686;53.084;8.872;2023-02-01T08:08:37;27.90;;;4.25;;
32186;SDS011;18686;53.084;8.872;2023-02-01T08:11:05;27.63;;;3.60;;
32186;SDS011;18686;53.084;8.872;2023-02-01T08:13:35;22.95;;;3.83;;
32186;SDS011;18686;53.084;8.872;2023-02-01T08:16:05;18.63;;;3.60;;
32186;SDS011;18686;53.084;8.872;2023-02-01T08:18:34;23.85;;;4.70;;
32186;SDS011;18686;53.084;8.872;2023-02-01T08:21:04;21.65;;;3.45;;
32186;SDS011;18686;53.084;8.872;2023-02-01T08:23:34;23.13;;;3.47;;
32186;SDS011;18686;53.084;8.872;2023-02-01T08:26:05;15.93;;;4.00;;
32186;SDS011;18686;53.084;8.872;2023-02-01T08:28:39;21.30;;;4.22;;
32186;SDS011;18686;53.084;8.872;2023-02-01T08:31:09;17.92;;;3.65;;
32186;SDS011;18686;53.084;8.872;2023-02-01T08:33:41;21.33;;;3.47;;
32186;SDS011;18686;53.084;8.872;2023-02-01T08:36:11;23.52;;;3.80;;
32186;SDS011;18686;53.084;8.872;2023-02-01T08:38:39;20.05;;;3.13;;
32186;SDS011;18686;53.084;8.872;2023-02-01T08:41:08;16.80;;;3.55;;
32186;SDS011;18686;53.084;8.872;2023-02-01T08:43:39;14.70;;;2.80;;
32186;SDS011;18686;53.084;8.872;2023-02-01T08:46:08;19.50;;;3.78;;
32186;SDS011;18686;53.084;8.872;2023-02-01T08:48:37;17.02;;;3.40;;
32186;SDS011;18686;53.084;8.872;2023-02-01T08:51:07;18.55;;;3.40;;
32186;SDS011;18686;53.084;8.872;2023-02-01T08:53:38;15.35;;;2.80;;
32186;SDS011;18686;53.084;8.872;2023-02-01T08:56:08;16.58;;;3.33;;
32186;SDS011;18686;53.084;8.872;2023-02-01T08:58:38;17.63;;;4.05;;
32186;SDS011;18686;53.084;8.872;2023-02-01T09:01:07;20.75;;;3.95;;
32186;SDS011;18686;53.084;8.872;2023-02-01T09:03:37;22.05;;;4.63;;
32186;SDS011;18686;53.084;8.872;2023-02-01T09:06:06;17.40;;;3.10;;
32186;SDS011;18686;53.084;8.872;2023-02-01T09:08:35;19.00;;;4.13;;
32186;SDS011;18686;53.084;8.872;2023-02-01T09:11:05;19.90;;;4.03;;
32186;SDS011;18686;53.084;8.872;2023-02-01T09:13:35;16.52;;;3.35;;
32186;SDS011;18686;53.084;8.872;2023-02-01T09:16:05;18.10;;;3.63;;
32186;SDS011;18686;53.084;8.872;2023-02-01T09:18:33;17.48;;;3.47;;
32186;SDS011;18686;53.084;8.872;2023-02-01T09:21:03;24.20;;;4.38;;
32186;SDS011;18686;53.084;8.872;2023-02-01T09:23:32;15.40;;;3.13;;
32186;SDS011;18686;53.084;8.872;2023-02-01T09:26:01;18.70;;;3.70;;
32186;SDS011;18686;53.084;8.872;2023-02-01T09:28:30;20.23;;;3.50;;
32186;SDS011;18686;53.084;8.872;2023-02-01T09:30:59;17.85;;;3.58;;
32186;SDS011;18686;53.084;8.872;2023-02-01T09:33:30;28.65;;;3.95;;
32186;SDS011;18686;53.084;8.872;2023-02-01T09:35:59;18.95;;;3.20;;
32186;SDS011;18686;53.084;8.872;2023-02-01T09:38:28;22.40;;;4.10;;
32186;SDS011;18686;53.084;8.872;2023-02-01T09:40:58;23.35;;;3.95;;
32186;SDS011;18686;53.084;8.872;2023-02-01T09:43:29;18.38;;;3.53;;
32186;SDS011;18686;53.084;8.872;2023-02-01T09:46:14;18.05;;;3.40;;
32186;SDS011;18686;53.084;8.872;2023-02-01T09:48:52;24.23;;;3.58;;
32186;SDS011;18686;53.084;8.872;2023-02-01T09:51:23;25.10;;;3.85;;
32186;SDS011;18686;53.084;8.872;2023-02-01T09:53:57;25.35;;;4.15;;
32186;SDS011;18686;53.084;8.872;2023-02-01T09:56:31;20.35;;;3.13;;
32186;SDS011;18686;53.084;8.872;2023-02-01T09:59:04;26.73;;;4.25;;
32186;SDS011;18686;53.084;8.872;2023-02-01T10:01:45;17.50;;;3.33;;
32186;SDS011;18686;53.084;8.872;2023-02-01T10:04:15;27.40;;;4.35;;
32186;SDS011;18686;53.084;8.872;2023-02-01T10:06:48;23.50;;;3.80;;
32186;SDS011;18686;53.084;8.872;2023-02-01T10:09:40;22.92;;;4.05;;
32186;SDS011;18686;53.084;8.872;2023-02-01T10:12:29;19.98;;;3.67;;
32186;SDS011;18686;53.084;8.872;2023-02-01T10:15:30;21.85;;;3.17;;
32186;SDS011;18686;53.084;8.872;2023-02-01T10:18:08;18.02;;;3.35;;
32186;SDS011;18686;53.084;8.872;2023-02-01T10:20:56;23.30;;;3.75;;
32186;SDS011;18686;53.084;8.872;2023-02-01T10:23:45;19.67;;;3.78;;
32186;SDS011;18686;53.084;8.872;2023-02-01T10:26:44;24.00;;;3.95;;
32186;SDS011;18686;53.084;8.872;2023-02-01T10:29:15;22.25;;;3.70;;
32186;SDS011;18686;53.084;8.872;2023-02-01T10:31:46;26.70;;;4.72;;
32186;SDS011;18686;53.084;8.872;2023-02-01T10:34:18;17.85;;;3.40;;
32186;SDS011;18686;53.084;8.872;2023-02-01T10:36:52;29.40;;;4.40;;
32186;SDS011;18686;53.084;8.872;2023-02-01T10:39:22;22.50;;;4.03;;
32186;SDS011;18686;53.084;8.872;2023-02-01T10:41:51;19.95;;;3.75;;
32186;SDS011;18686;53.084;8.872;2023-02-01T10:44:22;21.10;;;3.78;;
32186;SDS011;18686;53.084;8.872;2023-02-01T10:46:53;20.30;;;3.45;;
32186;SDS011;18686;53.084;8.872;2023-02-01T10:49:23;17.58;;;3.40;;
32186;SDS011;18686;53.084;8.872;2023-02-01T10:51:59;19.70;;;3.50;;
32186;SDS011;18686;53.084;8.872;2023-02-01T10:54:39;22.55;;;5.22;;
32186;SDS011;18686;53.084;8.872;2023-02-01T10:57:08;23.98;;;3.53;;
32186;SDS011;18686;53.084;8.872;2023-02-01T10:59:38;16.02;;;3.08;;
32186;SDS011;18686;53.084;8.872;2023-02-01T11:02:14;16.92;;;3.00;;
32186;SDS011;18686;53.084;8.872;2023-02-01T11:04:47;21.00;;;3.78;;
32186;SDS011;18686;53.084;8.872;2023-02-01T11:07:19;20.60;;;4.00;;
32186;SDS011;18686;53.084;8.872;2023-02-01T11:09:53;18.95;;;3.40;;
32186;SDS011;18686;53.084;8.872;2023-02-01T11:12:24;18.90;;;3.22;;
32186;SDS011;18686;53.084;8.872;2023-02-01T11:15:01;21.25;;;3.65;;
32186;SDS011;18686;53.084;8.872;2023-02-01T11:17:40;15.13;;;3.58;;
32186;SDS011;18686;53.084;8.872;2023-02-01T11:20:14;26.45;;;3.67;;
32186;SDS011;18686;53.084;8.872;2023-02-01T11:22:52;16.10;;;2.78;;
32186;SDS011;18686;53.084;8.872;2023-02-01T11:25:22;15.45;;;2.47;;
32186;SDS011;18686;53.084;8.872;2023-02-01T11:27:53;23.33;;;3.15;;
32186;SDS011;18686;53.084;8.872;2023-02-01T11:30:27;13.88;;;3.13;;
32186;SDS011;18686;53.084;8.872;2023-02-01T11:33:00;25.73;;;3.50;;
32186;SDS011;18686;53.084;8.872;2023-02-01T11:35:32;23.83;;;3.72;;
32186;SDS011;18686;53.084;8.872;2023-02-01T11:38:11;18.55;;;3.65;;
32186;SDS011;18686;53.084;8.872;2023-02-01T11:40:45;20.60;;;3.22;;
32186;SDS011;18686;53.084;8.872;2023-02-01T11:43:15;19.23;;;3.83;;
32186;SDS011;18686;53.084;8.872;2023-02-01T11:45:54;15.18;;;2.70;;
32186;SDS011;18686;53.084;8.872;2023-02-01T11:48:24;12.93;;;2.15;;
32186;SDS011;18686;53.084;8.872;2023-02-01T11:51:04;11.70;;;2.70;;
32186;SDS011;18686;53.084;8.872;2023-02-01T11:54:02;16.23;;;2.72;;
32186;SDS011;18686;53.084;8.872;2023-02-01T11:56:37;14.30;;;3.13;;
32186;SDS011;18686;53.084;8.872;2023-02-01T11:59:19;11.57;;;2.45;;
32186;SDS011;18686;53.084;8.872;2023-02-01T12:02:03;16.55;;;2.97;;
32186;SDS011;18686;53.084;8.872;2023-02-01T12:04:51;21.38;;;3.50;;
32186;SDS011;18686;53.084;8.872;2023-02-01T12:07:35;16.00;;;3.00;;
32186;SDS011;18686;53.084;8.872;2023-02-01T12:10:19;20.90;;;3.00;;
32186;SDS011;18686;53.084;8.872;2023-02-01T12:12:57;17.20;;;4.13;;
32186;SDS011;18686;53.084;8.872;2023-02-01T12:15:40;15.43;;;3.83;;
32186;SDS011;18686;53.084;8.872;2023-02-01T12:18:26;19.55;;;3.88;;
32186;SDS011;18686;53.084;8.872;2023-02-01T12:21:17;18.33;;;3.90;;
32186;SDS011;18686;53.084;8.872;2023-02-01T12:24:05;18.35;;;2.90;;
32186;SDS011;18686;53.084;8.872;2023-02-01T12:26:56;7.40;;;1.83;;
32186;SDS011;18686;53.084;8.872;2023-02-01T12:32:33;4.18;;;0.95;;
32186;SDS011;18686;53.084;8.872;2023-02-01T12:38:14;5.05;;;0.70;;
32186;SDS011;18686;53.084;8.872;2023-02-01T12:40:57;3.55;;;0.75;;
32186;SDS011;18686;53.084;8.872;2023-02-01T12:43:38;9.43;;;1.17;;
32186;SDS011;18686;53.084;8.872;2023-02-01T12:46:10;3.53;;;1.00;;
32186;SDS011;18686;53.084;8.872;2023-02-01T12:48:47;7.00;;;1.20;;
32186;SDS011;18686;53.084;8.872;2023-02-01T12:51:24;7.03;;;2.97;;
32186;SDS011;18686;53.084;8.872;2023-02-01T12:53:57;2.05;;;1.27;;
32186;SDS011;18686;53.084;8.872;2023-02-01T12:56:32;3.58;;;0.95;;
32186;SDS011;18686;53.084;8.872;2023-02-01T12:59:08;6.10;;;0.73;;
32186;SDS011;18686;53.084;8.872;2023-02-01T13:01:45;1.42;;;0.80;;
32186;SDS011;18686;53.084;8.872;2023-02-01T13:04:19;2.45;;;0.95;;
32186;SDS011;18686;53.084;8.872;2023-02-01T13:06:53;5.45;;;0.70;;
32186;SDS011;18686;53.084;8.872;2023-02-01T13:09:29;1.77;;;0.50;;
32186;SDS011;18686;53.084;8.872;2023-02-01T13:12:05;1.50;;;0.50;;
32186;SDS011;18686;53.084;8.872;2023-02-01T13:14:42;0.70;;;0.50;;
32186;SDS011;18686;53.084;8.872;2023-02-01T13:17:15;4.68;;;0.60;;
32186;SDS011;18686;53.084;8.872;2023-02-01T13:19:48;1.77;;;0.47;;
32186;SDS011;18686;53.084;8.872;2023-02-01T13:22:21;1.70;;;0.60;;
32186;SDS011;18686;53.084;8.872;2023-02-01T13:24:54;5.30;;;0.60;;
32186;SDS011;18686;53.084;8.872;2023-02-01T13:27:26;3.92;;;0.40;;
32186;SDS011;18686;53.084;8.872;2023-02-01T13:29:58;7.07;;;0.65;;
32186;SDS011;18686;53.084;8.872;2023-02-01T13:32:41;6.10;;;0.75;;
32186;SDS011;18686;53.084;8.872;2023-02-01T13:35:49;6.78;;;0.90;;
32186;SDS011;18686;53.084;8.872;2023-02-01T13:38:51;6.50;;;1.05;;
32186;SDS011;18686;53.084;8.872;2023-02-01T13:41:50;9.70;;;1.35;;
32186;SDS011;18686;53.084;8.872;2023-02-01T13:44:24;9.57;;;1.30;;
32186;SDS011;18686;53.084;8.872;2023-02-01T13:46:58;8.60;;;1.27;;
32186;SDS011;18686;53.084;8.872;2023-02-01T13:49:30;8.60;;;1.60;;
32186;SDS011;18686;53.084;8.872;2023-02-01T13:52:05;12.32;;;1.50;;
32186;SDS011;18686;53.084;8.872;2023-02-01T13:54:34;12.48;;;1.75;;
32186;SDS011;18686;53.084;8.872;2023-02-01T13:57:06;8.50;;;1.17;;
32186;SDS011;18686;53.084;8.872;2023-02-01T14:00:08;9.93;;;2.05;;
32186;SDS011;18686;53.084;8.872;2023-02-01T14:05:56;20.17;;;3.72;;
32186;SDS011;18686;53.084;8.872;2023-02-01T14:08:42;13.68;;;1.95;;
32186;SDS011;18686;53.084;8.872;2023-02-01T14:23:20;14.43;;;2.28;;
32186;SDS011;18686;53.084;8.872;2023-02-01T14:26:02;12.77;;;1.90;;
32186;SDS011;18686;53.084;8.872;2023-02-01T14:28:38;19.08;;;3.20;;
32186;SDS011;18686;53.084;8.872;2023-02-01T14:31:14;17.98;;;1.98;;
32186;SDS011;18686;53.084;8.872;2023-02-01T14:33:46;18.48;;;2.13;;
32186;SDS011;18686;53.084;8.872;2023-02-01T14:36:14;12.00;;;2.10;;
32186;SDS011;18686;53.084;8.872;2023-02-01T14:38:48;12.93;;;1.80;;
32186;SDS011;18686;53.084;8.872;2023-02-01T14:41:30;17.17;;;2.58;;
32186;SDS011;18686;53.084;8.872;2023-02-01T14:44:14;15.23;;;2.85;;
32186;SDS011;18686;53.084;8.872;2023-02-01T14:47:03;21.10;;;2.63;;
32186;SDS011;18686;53.084;8.872;2023-02-01T14:49:34;14.95;;;2.53;;
32186;SDS011;18686;53.084;8.872;2023-02-01T14:52:09;16.10;;;2.65;;
32186;SDS011;18686;53.084;8.872;2023-02-01T14:54:43;25.20;;;5.38;;
32186;SDS011;18686;53.084;8.872;2023-02-01T14:57:15;20.80;;;3.08;;
32186;SDS011;18686;53.084;8.872;2023-02-01T14:59:46;22.55;;;3.08;;
32186;SDS011;18686;53.084;8.872;2023-02-01T15:02:18;37.63;;;4.65;;
32186;SDS011;18686;53.084;8.872;2023-02-01T15:04:53;30.30;;;3.85;;
32186;SDS011;18686;53.084;8.872;2023-02-01T15:07:23;40.15;;;4.68;;
32186;SDS011;18686;53.084;8.872;2023-02-01T15:09:56;28.45;;;3.50;;
32186;SDS011;18686;53.084;8.872;2023-02-01T15:12:26;35.83;;;4.38;;
32186;SDS011;18686;53.084;8.872;2023-02-01T15:15:10;31.50;;;4.40;;
32186;SDS011;18686;53.084;8.872;2023-02-01T15:17:40;30.80;;;4.05;;
32186;SDS011;18686;53.084;8.872;2023-02-01T15:20:17;35.40;;;4.15;;
32186;SDS011;18686;53.084;8.872;2023-02-01T15:22:52;31.45;;;4.38;;
32186;SDS011;18686;53.084;8.872;2023-02-01T15:25:27;31.05;;;4.20;;
32186;SDS011;18686;53.084;8.872;2023-02-01T15:27:57;39.10;;;5.18;;
32186;SDS011;18686;53.084;8.872;2023-02-01T15:30:26;56.70;;;5.88;;
32186;SDS011;18686;53.084;8.872;2023-02-01T15:33:06;37.40;;;4.97;;
32186;SDS011;18686;53.084;8.872;2023-02-01T15:35:36;36.97;;;5.65;;
32186;SDS011;18686;53.084;8.872;2023-02-01T15:38:19;38.05;;;4.55;;
32186;SDS011;18686;53.084;8.872;2023-02-01T15:41:04;36.83;;;5.38;;